YAFD weather

Alfred Hospital Helipad
Melbourne, South Australia, Australia

Public forecast

Using degrees Celsius for public forecast. Weather courtesy of forecast.io.

Closest aviation weather report (METAR) to Alfred Hospital Helipad

Closest report is Melbourne Essendon Airport, 8.0 nm (14.8 km) NNW. Retrieved 2019/10/23 06:00 UTC (9 minutes ago):

YMEN 230600Z AUTO 17009KT 9999 // NCD 27/03 Q1017

Closest aviation forecast (TAF) to Alfred Hospital Helipad

Closest forecast is Melbourne International Airport, 12.2 nm (22.7 km) NNW. Retrieved 2019/10/23 06:00 UTC (9 minutes ago):

TAF YMML 230453Z 2306/2412 19010KT CAVOK FM231200 36008KT CAVOK BECMG 2322/2323 36018G32KT CAVOK FM240500 02012KT CAVOK